METAR Data
IDs: Format: Raw Decoded Include TAF

Data at: 2201 UTC 18 Apr 2021

LFMK 182130Z AUTO 28005KT CAVOK 08/02 Q1020